sensor_id;sensor_type;location;lat;lon;timestamp;P1;durP1;ratioP1;P2;durP2;ratioP2
55003;SDS011;40900;52.710;6.438;2022-09-09T00:06:29;9.30;;;5.20;;
55003;SDS011;40900;52.710;6.438;2022-09-09T00:12:02;10.45;;;5.07;;
55003;SDS011;40900;52.710;6.438;2022-09-09T00:22:38;10.98;;;4.93;;
55003;SDS011;40900;52.710;6.438;2022-09-09T00:25:22;11.10;;;5.85;;
55003;SDS011;40900;52.710;6.438;2022-09-09T00:27:53;10.57;;;5.22;;
55003;SDS011;40900;52.710;6.438;2022-09-09T00:30:20;10.00;;;5.63;;
55003;SDS011;40900;52.710;6.438;2022-09-09T00:32:55;10.02;;;5.22;;
55003;SDS011;40900;52.710;6.438;2022-09-09T00:35:27;7.18;;;5.20;;
55003;SDS011;40900;52.710;6.438;2022-09-09T00:37:56;15.35;;;6.07;;
55003;SDS011;40900;52.710;6.438;2022-09-09T00:40:39;7.93;;;5.72;;
55003;SDS011;40900;52.710;6.438;2022-09-09T00:43:30;12.50;;;5.15;;
55003;SDS011;40900;52.710;6.438;2022-09-09T00:49:13;8.40;;;4.80;;
55003;SDS011;40900;52.710;6.438;2022-09-09T00:57:34;8.82;;;5.18;;
55003;SDS011;40900;52.710;6.438;2022-09-09T01:00:17;11.38;;;6.25;;
55003;SDS011;40900;52.710;6.438;2022-09-09T01:03:02;12.10;;;6.22;;
55003;SDS011;40900;52.710;6.438;2022-09-09T01:11:22;8.77;;;5.10;;
55003;SDS011;40900;52.710;6.438;2022-09-09T01:16:50;7.80;;;4.32;;
55003;SDS011;40900;52.710;6.438;2022-09-09T01:19:31;8.60;;;4.28;;
55003;SDS011;40900;52.710;6.438;2022-09-09T01:27:42;8.30;;;4.50;;
55003;SDS011;40900;52.710;6.438;2022-09-09T01:30:11;8.23;;;4.40;;
55003;SDS011;40900;52.710;6.438;2022-09-09T01:32:41;9.75;;;4.65;;
55003;SDS011;40900;52.710;6.438;2022-09-09T01:35:10;9.88;;;5.15;;
55003;SDS011;40900;52.710;6.438;2022-09-09T01:37:40;8.98;;;4.63;;
55003;SDS011;40900;52.710;6.438;2022-09-09T01:40:06;8.25;;;4.40;;
55003;SDS011;40900;52.710;6.438;2022-09-09T01:42:33;10.35;;;4.68;;
55003;SDS011;40900;52.710;6.438;2022-09-09T01:44:58;8.32;;;4.35;;
55003;SDS011;40900;52.710;6.438;2022-09-09T01:47:24;8.93;;;4.80;;
55003;SDS011;40900;52.710;6.438;2022-09-09T01:49:50;10.88;;;5.18;;
55003;SDS011;40900;52.710;6.438;2022-09-09T01:52:16;8.13;;;4.47;;
55003;SDS011;40900;52.710;6.438;2022-09-09T01:54:41;8.00;;;4.72;;
55003;SDS011;40900;52.710;6.438;2022-09-09T01:57:24;11.32;;;5.97;;
55003;SDS011;40900;52.710;6.438;2022-09-09T02:02:48;7.88;;;5.53;;
55003;SDS011;40900;52.710;6.438;2022-09-09T02:05:30;7.70;;;5.40;;
55003;SDS011;40900;52.710;6.438;2022-09-09T02:13:07;7.57;;;5.55;;
55003;SDS011;40900;52.710;6.438;2022-09-09T02:15:43;8.27;;;5.80;;
55003;SDS011;40900;52.710;6.438;2022-09-09T02:18:11;9.10;;;5.60;;
55003;SDS011;40900;52.710;6.438;2022-09-09T02:20:39;9.70;;;5.93;;
55003;SDS011;40900;52.710;6.438;2022-09-09T02:23:06;7.25;;;5.20;;
55003;SDS011;40900;52.710;6.438;2022-09-09T02:25:33;9.90;;;5.88;;
55003;SDS011;40900;52.710;6.438;2022-09-09T02:28:01;10.13;;;5.32;;
55003;SDS011;40900;52.710;6.438;2022-09-09T02:30:32;6.78;;;4.90;;
55003;SDS011;40900;52.710;6.438;2022-09-09T02:32:59;6.70;;;4.95;;
55003;SDS011;40900;52.710;6.438;2022-09-09T02:35:29;8.80;;;5.68;;
55003;SDS011;40900;52.710;6.438;2022-09-09T02:37:58;10.30;;;6.13;;
55003;SDS011;40900;52.710;6.438;2022-09-09T02:40:28;11.85;;;6.72;;
55003;SDS011;40900;52.710;6.438;2022-09-09T02:42:54;9.77;;;6.43;;
55003;SDS011;40900;52.710;6.438;2022-09-09T02:45:22;9.00;;;6.00;;
55003;SDS011;40900;52.710;6.438;2022-09-09T02:51:02;11.02;;;7.65;;
55003;SDS011;40900;52.710;6.438;2022-09-09T02:53:35;16.42;;;9.20;;
55003;SDS011;40900;52.710;6.438;2022-09-09T02:56:15;10.52;;;7.80;;
55003;SDS011;40900;52.710;6.438;2022-09-09T02:58:44;12.30;;;8.38;;
55003;SDS011;40900;52.710;6.438;2022-09-09T03:01:11;11.55;;;7.30;;
55003;SDS011;40900;52.710;6.438;2022-09-09T03:03:37;13.13;;;8.02;;
55003;SDS011;40900;52.710;6.438;2022-09-09T03:06:03;10.52;;;8.18;;
55003;SDS011;40900;52.710;6.438;2022-09-09T03:08:30;11.07;;;8.60;;
55003;SDS011;40900;52.710;6.438;2022-09-09T03:10:58;11.05;;;7.88;;
55003;SDS011;40900;52.710;6.438;2022-09-09T03:13:26;9.13;;;8.20;;
55003;SDS011;40900;52.710;6.438;2022-09-09T03:15:51;11.95;;;7.57;;
55003;SDS011;40900;52.710;6.438;2022-09-09T03:18:17;12.82;;;7.07;;
55003;SDS011;40900;52.710;6.438;2022-09-09T03:20:43;12.70;;;7.57;;
55003;SDS011;40900;52.710;6.438;2022-09-09T03:23:09;9.80;;;7.07;;
55003;SDS011;40900;52.710;6.438;2022-09-09T03:25:34;9.55;;;7.40;;
55003;SDS011;40900;52.710;6.438;2022-09-09T03:28:00;9.02;;;7.03;;
55003;SDS011;40900;52.710;6.438;2022-09-09T03:30:27;9.27;;;7.22;;
55003;SDS011;40900;52.710;6.438;2022-09-09T03:32:53;10.77;;;7.30;;
55003;SDS011;40900;52.710;6.438;2022-09-09T03:35:20;9.35;;;6.82;;
55003;SDS011;40900;52.710;6.438;2022-09-09T03:37:46;8.27;;;6.32;;
55003;SDS011;40900;52.710;6.438;2022-09-09T03:40:12;9.05;;;6.85;;
55003;SDS011;40900;52.710;6.438;2022-09-09T03:42:39;8.20;;;7.05;;
55003;SDS011;40900;52.710;6.438;2022-09-09T03:45:05;9.43;;;7.45;;
55003;SDS011;40900;52.710;6.438;2022-09-09T03:47:34;10.55;;;7.18;;
55003;SDS011;40900;52.710;6.438;2022-09-09T03:50:00;14.05;;;8.00;;
55003;SDS011;40900;52.710;6.438;2022-09-09T03:52:26;11.40;;;7.80;;
55003;SDS011;40900;52.710;6.438;2022-09-09T03:54:52;10.10;;;7.85;;
55003;SDS011;40900;52.710;6.438;2022-09-09T03:57:19;11.18;;;8.23;;
55003;SDS011;40900;52.710;6.438;2022-09-09T03:59:45;10.52;;;7.82;;
55003;SDS011;40900;52.710;6.438;2022-09-09T04:02:11;11.20;;;8.55;;
55003;SDS011;40900;52.710;6.438;2022-09-09T04:04:36;11.77;;;8.85;;
55003;SDS011;40900;52.710;6.438;2022-09-09T04:07:02;12.65;;;8.70;;
55003;SDS011;40900;52.710;6.438;2022-09-09T04:09:31;13.30;;;9.85;;
55003;SDS011;40900;52.710;6.438;2022-09-09T04:11:56;14.38;;;10.55;;
55003;SDS011;40900;52.710;6.438;2022-09-09T04:14:22;10.60;;;9.50;;
55003;SDS011;40900;52.710;6.438;2022-09-09T04:16:48;11.73;;;9.80;;
55003;SDS011;40900;52.710;6.438;2022-09-09T04:19:14;12.95;;;9.98;;
55003;SDS011;40900;52.710;6.438;2022-09-09T04:21:40;12.52;;;10.75;;
55003;SDS011;40900;52.710;6.438;2022-09-09T04:24:09;14.35;;;10.10;;
55003;SDS011;40900;52.710;6.438;2022-09-09T04:26:35;11.80;;;9.45;;
55003;SDS011;40900;52.710;6.438;2022-09-09T04:29:02;11.68;;;9.68;;
55003;SDS011;40900;52.710;6.438;2022-09-09T04:31:32;12.40;;;10.27;;
55003;SDS011;40900;52.710;6.438;2022-09-09T04:33:57;12.10;;;10.77;;
55003;SDS011;40900;52.710;6.438;2022-09-09T04:36:23;14.25;;;10.40;;
55003;SDS011;40900;52.710;6.438;2022-09-09T04:38:49;12.45;;;9.60;;
55003;SDS011;40900;52.710;6.438;2022-09-09T04:41:15;11.40;;;9.73;;
55003;SDS011;40900;52.710;6.438;2022-09-09T04:43:41;12.15;;;9.95;;
55003;SDS011;40900;52.710;6.438;2022-09-09T04:46:07;13.45;;;10.52;;
55003;SDS011;40900;52.710;6.438;2022-09-09T04:48:33;11.65;;;10.30;;
55003;SDS011;40900;52.710;6.438;2022-09-09T04:53:26;12.88;;;11.20;;
55003;SDS011;40900;52.710;6.438;2022-09-09T04:56:00;12.65;;;10.43;;
55003;SDS011;40900;52.710;6.438;2022-09-09T04:58:27;11.70;;;10.48;;
55003;SDS011;40900;52.710;6.438;2022-09-09T05:00:53;12.95;;;10.65;;
55003;SDS011;40900;52.710;6.438;2022-09-09T05:03:18;11.80;;;10.43;;
55003;SDS011;40900;52.710;6.438;2022-09-09T05:05:44;11.52;;;10.32;;
55003;SDS011;40900;52.710;6.438;2022-09-09T05:08:10;12.93;;;10.02;;
55003;SDS011;40900;52.710;6.438;2022-09-09T05:10:37;11.93;;;9.63;;
55003;SDS011;40900;52.710;6.438;2022-09-09T05:13:04;11.95;;;9.38;;
55003;SDS011;40900;52.710;6.438;2022-09-09T05:15:31;12.50;;;9.70;;
55003;SDS011;40900;52.710;6.438;2022-09-09T05:17:58;13.73;;;9.63;;
55003;SDS011;40900;52.710;6.438;2022-09-09T05:20:25;10.32;;;9.13;;
55003;SDS011;40900;52.710;6.438;2022-09-09T05:22:54;12.88;;;9.80;;
55003;SDS011;40900;52.710;6.438;2022-09-09T05:25:21;12.63;;;9.68;;
55003;SDS011;40900;52.710;6.438;2022-09-09T05:27:47;13.10;;;10.35;;
55003;SDS011;40900;52.710;6.438;2022-09-09T05:30:14;13.68;;;10.23;;
55003;SDS011;40900;52.710;6.438;2022-09-09T05:32:40;11.40;;;8.85;;
55003;SDS011;40900;52.710;6.438;2022-09-09T05:35:06;11.13;;;8.98;;
55003;SDS011;40900;52.710;6.438;2022-09-09T05:37:32;11.27;;;9.57;;
55003;SDS011;40900;52.710;6.438;2022-09-09T05:39:58;10.43;;;9.10;;
55003;SDS011;40900;52.710;6.438;2022-09-09T05:42:23;12.18;;;10.02;;
55003;SDS011;40900;52.710;6.438;2022-09-09T05:44:49;10.25;;;9.18;;
55003;SDS011;40900;52.710;6.438;2022-09-09T05:47:16;10.45;;;8.90;;
55003;SDS011;40900;52.710;6.438;2022-09-09T05:49:42;10.70;;;9.35;;
55003;SDS011;40900;52.710;6.438;2022-09-09T05:52:08;10.38;;;8.68;;
55003;SDS011;40900;52.710;6.438;2022-09-09T05:54:34;11.25;;;9.55;;
55003;SDS011;40900;52.710;6.438;2022-09-09T05:57:02;11.93;;;9.70;;
55003;SDS011;40900;52.710;6.438;2022-09-09T05:59:28;10.20;;;8.95;;
55003;SDS011;40900;52.710;6.438;2022-09-09T06:01:54;9.40;;;8.50;;
55003;SDS011;40900;52.710;6.438;2022-09-09T06:04:20;9.70;;;8.65;;
55003;SDS011;40900;52.710;6.438;2022-09-09T06:06:47;10.07;;;8.70;;
55003;SDS011;40900;52.710;6.438;2022-09-09T06:09:13;12.60;;;9.30;;
55003;SDS011;40900;52.710;6.438;2022-09-09T06:11:40;15.32;;;8.95;;
55003;SDS011;40900;52.710;6.438;2022-09-09T06:14:06;11.27;;;8.55;;
55003;SDS011;40900;52.710;6.438;2022-09-09T06:16:32;9.75;;;8.57;;
55003;SDS011;40900;52.710;6.438;2022-09-09T06:18:59;10.13;;;9.07;;
55003;SDS011;40900;52.710;6.438;2022-09-09T06:21:30;11.20;;;9.02;;
55003;SDS011;40900;52.710;6.438;2022-09-09T06:23:58;12.75;;;8.23;;
55003;SDS011;40900;52.710;6.438;2022-09-09T06:26:34;9.95;;;8.90;;
55003;SDS011;40900;52.710;6.438;2022-09-09T06:29:02;10.52;;;8.20;;
55003;SDS011;40900;52.710;6.438;2022-09-09T06:31:29;13.43;;;8.90;;
55003;SDS011;40900;52.710;6.438;2022-09-09T06:33:57;9.90;;;8.38;;
55003;SDS011;40900;52.710;6.438;2022-09-09T06:38:50;10.43;;;8.65;;
55003;SDS011;40900;52.710;6.438;2022-09-09T06:41:16;9.23;;;7.53;;
55003;SDS011;40900;52.710;6.438;2022-09-09T06:43:44;9.85;;;7.60;;
55003;SDS011;40900;52.710;6.438;2022-09-09T06:46:12;8.90;;;7.63;;
55003;SDS011;40900;52.710;6.438;2022-09-09T06:48:42;11.65;;;8.25;;
55003;SDS011;40900;52.710;6.438;2022-09-09T06:51:10;11.02;;;7.78;;
55003;SDS011;40900;52.710;6.438;2022-09-09T06:53:39;9.90;;;7.30;;
55003;SDS011;40900;52.710;6.438;2022-09-09T07:01:18;11.30;;;7.82;;
55003;SDS011;40900;52.710;6.438;2022-09-09T07:03:49;8.60;;;7.25;;
55003;SDS011;40900;52.710;6.438;2022-09-09T07:06:23;10.50;;;7.63;;
55003;SDS011;40900;52.710;6.438;2022-09-09T07:08:54;7.43;;;6.28;;
55003;SDS011;40900;52.710;6.438;2022-09-09T07:11:25;10.82;;;6.40;;
55003;SDS011;40900;52.710;6.438;2022-09-09T07:13:59;12.40;;;6.78;;
55003;SDS011;40900;52.710;6.438;2022-09-09T07:16:26;8.95;;;6.07;;
55003;SDS011;40900;52.710;6.438;2022-09-09T07:18:52;7.88;;;6.55;;
55003;SDS011;40900;52.710;6.438;2022-09-09T07:21:23;10.43;;;6.10;;
55003;SDS011;40900;52.710;6.438;2022-09-09T07:23:51;9.10;;;5.95;;
55003;SDS011;40900;52.710;6.438;2022-09-09T07:26:18;8.30;;;5.97;;
55003;SDS011;40900;52.710;6.438;2022-09-09T07:28:45;9.73;;;5.80;;
55003;SDS011;40900;52.710;6.438;2022-09-09T07:31:18;10.68;;;6.00;;
55003;SDS011;40900;52.710;6.438;2022-09-09T07:33:48;9.68;;;5.53;;
55003;SDS011;40900;52.710;6.438;2022-09-09T07:38:46;6.60;;;5.55;;
55003;SDS011;40900;52.710;6.438;2022-09-09T07:41:18;10.25;;;5.05;;
55003;SDS011;40900;52.710;6.438;2022-09-09T07:43:52;11.35;;;5.68;;
55003;SDS011;40900;52.710;6.438;2022-09-09T07:46:22;10.65;;;4.80;;
55003;SDS011;40900;52.710;6.438;2022-09-09T07:48:52;9.77;;;4.82;;
55003;SDS011;40900;52.710;6.438;2022-09-09T07:51:23;9.88;;;4.78;;
55003;SDS011;40900;52.710;6.438;2022-09-09T07:53:52;8.35;;;4.53;;
55003;SDS011;40900;52.710;6.438;2022-09-09T07:56:23;7.82;;;4.88;;
55003;SDS011;40900;52.710;6.438;2022-09-09T07:58:51;9.30;;;4.90;;
55003;SDS011;40900;52.710;6.438;2022-09-09T08:01:19;6.70;;;4.63;;
55003;SDS011;40900;52.710;6.438;2022-09-09T08:03:53;10.68;;;4.20;;
55003;SDS011;40900;52.710;6.438;2022-09-09T08:06:24;9.80;;;4.55;;
55003;SDS011;40900;52.710;6.438;2022-09-09T08:08:51;9.60;;;4.38;;
55003;SDS011;40900;52.710;6.438;2022-09-09T08:11:18;6.72;;;4.20;;
55003;SDS011;40900;52.710;6.438;2022-09-09T08:13:44;11.05;;;4.38;;
55003;SDS011;40900;52.710;6.438;2022-09-09T08:16:14;10.35;;;3.85;;
55003;SDS011;40900;52.710;6.438;2022-09-09T08:18:47;10.70;;;3.75;;
55003;SDS011;40900;52.710;6.438;2022-09-09T08:21:15;9.50;;;3.63;;
55003;SDS011;40900;52.710;6.438;2022-09-09T08:23:46;12.10;;;3.53;;
55003;SDS011;40900;52.710;6.438;2022-09-09T08:26:17;9.02;;;3.58;;
55003;SDS011;40900;52.710;6.438;2022-09-09T08:28:47;7.57;;;3.30;;
55003;SDS011;40900;52.710;6.438;2022-09-09T08:31:17;10.57;;;3.60;;
55003;SDS011;40900;52.710;6.438;2022-09-09T08:33:47;10.13;;;3.25;;
55003;SDS011;40900;52.710;6.438;2022-09-09T08:36:14;9.85;;;3.67;;
55003;SDS011;40900;52.710;6.438;2022-09-09T08:38:49;10.48;;;3.40;;
55003;SDS011;40900;52.710;6.438;2022-09-09T08:41:22;9.43;;;3.28;;
55003;SDS011;40900;52.710;6.438;2022-09-09T08:58:33;11.20;;;3.10;;
55003;SDS011;40900;52.710;6.438;2022-09-09T09:06:09;9.18;;;3.17;;
55003;SDS011;40900;52.710;6.438;2022-09-09T09:08:50;12.50;;;3.03;;
55003;SDS011;40900;52.710;6.438;2022-09-09T09:11:21;10.85;;;3.13;;
55003;SDS011;40900;52.710;6.438;2022-09-09T09:16:38;10.80;;;2.95;;
55003;SDS011;40900;52.710;6.438;2022-09-09T09:19:15;7.57;;;2.95;;
55003;SDS011;40900;52.710;6.438;2022-09-09T09:21:42;13.25;;;3.13;;
55003;SDS011;40900;52.710;6.438;2022-09-09T09:24:23;10.50;;;2.95;;
55003;SDS011;40900;52.710;6.438;2022-09-09T09:26:51;11.77;;;2.90;;
55003;SDS011;40900;52.710;6.438;2022-09-09T09:29:19;11.05;;;3.05;;
55003;SDS011;40900;52.710;6.438;2022-09-09T09:31:48;9.32;;;2.67;;
55003;SDS011;40900;52.710;6.438;2022-09-09T09:34:20;8.25;;;2.65;;
55003;SDS011;40900;52.710;6.438;2022-09-09T09:36:52;8.95;;;3.05;;
55003;SDS011;40900;52.710;6.438;2022-09-09T09:39:26;11.93;;;3.13;;
55003;SDS011;40900;52.710;6.438;2022-09-09T09:41:54;11.75;;;2.60;;
55003;SDS011;40900;52.710;6.438;2022-09-09T09:44:30;10.50;;;2.30;;
55003;SDS011;40900;52.710;6.438;2022-09-09T09:49:39;9.70;;;2.42;;
55003;SDS011;40900;52.710;6.438;2022-09-09T09:52:19;7.43;;;2.50;;
55003;SDS011;40900;52.710;6.438;2022-09-09T09:54:54;7.95;;;2.50;;
55003;SDS011;40900;52.710;6.438;2022-09-09T09:57:23;12.23;;;2.67;;
55003;SDS011;40900;52.710;6.438;2022-09-09T10:00:01;9.60;;;2.53;;
55003;SDS011;40900;52.710;6.438;2022-09-09T10:02:39;8.87;;;2.40;;
55003;SDS011;40900;52.710;6.438;2022-09-09T10:05:21;10.13;;;2.55;;
55003;SDS011;40900;52.710;6.438;2022-09-09T10:13:20;9.43;;;2.63;;
55003;SDS011;40900;52.710;6.438;2022-09-09T10:16:17;9.55;;;2.45;;
55003;SDS011;40900;52.710;6.438;2022-09-09T10:30:19;8.60;;;2.75;;
55003;SDS011;40900;52.710;6.438;2022-09-09T10:38:45;7.95;;;2.38;;
55003;SDS011;40900;52.710;6.438;2022-09-09T10:41:11;9.40;;;2.10;;
55003;SDS011;40900;52.710;6.438;2022-09-09T11:00:02;8.82;;;2.35;;
55003;SDS011;40900;52.710;6.438;2022-09-09T11:02:33;5.85;;;2.20;;
55003;SDS011;40900;52.710;6.438;2022-09-09T11:07:59;9.52;;;2.42;;
55003;SDS011;40900;52.710;6.438;2022-09-09T11:13:28;6.57;;;2.10;;
55003;SDS011;40900;52.710;6.438;2022-09-09T11:21:43;11.32;;;2.70;;
55003;SDS011;40900;52.710;6.438;2022-09-09T11:26:50;12.40;;;2.75;;
55003;SDS011;40900;52.710;6.438;2022-09-09T11:29:33;7.65;;;2.28;;
55003;SDS011;40900;52.710;6.438;2022-09-09T11:32:30;7.88;;;2.28;;
55003;SDS011;40900;52.710;6.438;2022-09-09T11:40:34;8.50;;;2.08;;
55003;SDS011;40900;52.710;6.438;2022-09-09T11:43:01;7.07;;;1.92;;
55003;SDS011;40900;52.710;6.438;2022-09-09T11:45:30;9.57;;;2.03;;
55003;SDS011;40900;52.710;6.438;2022-09-09T11:48:01;8.10;;;2.45;;
55003;SDS011;40900;52.710;6.438;2022-09-09T11:50:32;7.53;;;2.28;;
55003;SDS011;40900;52.710;6.438;2022-09-09T11:53:18;9.15;;;2.28;;
55003;SDS011;40900;52.710;6.438;2022-09-09T11:55:47;7.13;;;2.40;;
55003;SDS011;40900;52.710;6.438;2022-09-09T11:58:25;7.40;;;2.17;;
55003;SDS011;40900;52.710;6.438;2022-09-09T12:00:50;8.48;;;2.35;;
55003;SDS011;40900;52.710;6.438;2022-09-09T12:06:11;7.90;;;2.38;;
55003;SDS011;40900;52.710;6.438;2022-09-09T12:08:53;7.25;;;2.50;;
55003;SDS011;40900;52.710;6.438;2022-09-09T12:11:24;6.82;;;2.17;;
55003;SDS011;40900;52.710;6.438;2022-09-09T12:13:55;6.30;;;1.80;;
55003;SDS011;40900;52.710;6.438;2022-09-09T12:19:02;4.68;;;1.77;;
55003;SDS011;40900;52.710;6.438;2022-09-09T12:22:01;9.95;;;2.25;;
55003;SDS011;40900;52.710;6.438;2022-09-09T12:26:59;8.07;;;2.10;;
55003;SDS011;40900;52.710;6.438;2022-09-09T12:29:36;7.95;;;2.13;;
55003;SDS011;40900;52.710;6.438;2022-09-09T12:32:17;7.93;;;1.60;;
55003;SDS011;40900;52.710;6.438;2022-09-09T12:34:49;6.78;;;1.83;;
55003;SDS011;40900;52.710;6.438;2022-09-09T12:40:18;10.57;;;2.58;;
55003;SDS011;40900;52.710;6.438;2022-09-09T12:42:44;7.90;;;1.92;;
55003;SDS011;40900;52.710;6.438;2022-09-09T12:45:17;7.43;;;1.88;;
55003;SDS011;40900;52.710;6.438;2022-09-09T12:50:21;6.38;;;1.75;;
55003;SDS011;40900;52.710;6.438;2022-09-09T12:52:51;6.15;;;1.90;;
55003;SDS011;40900;52.710;6.438;2022-09-09T12:55:20;6.70;;;1.98;;
55003;SDS011;40900;52.710;6.438;2022-09-09T12:57:50;9.15;;;1.92;;
55003;SDS011;40900;52.710;6.438;2022-09-09T13:00:18;7.90;;;1.80;;
55003;SDS011;40900;52.710;6.438;2022-09-09T13:02:48;8.00;;;2.25;;
55003;SDS011;40900;52.710;6.438;2022-09-09T13:05:26;6.95;;;1.77;;
55003;SDS011;40900;52.710;6.438;2022-09-09T13:08:03;5.90;;;1.67;;
55003;SDS011;40900;52.710;6.438;2022-09-09T13:13:31;8.73;;;2.10;;
55003;SDS011;40900;52.710;6.438;2022-09-09T13:16:03;7.93;;;2.10;;
55003;SDS011;40900;52.710;6.438;2022-09-09T13:18:34;6.13;;;2.05;;
55003;SDS011;40900;52.710;6.438;2022-09-09T13:21:02;6.00;;;1.35;;
55003;SDS011;40900;52.710;6.438;2022-09-09T13:23:35;6.80;;;1.95;;
55003;SDS011;40900;52.710;6.438;2022-09-09T13:26:06;7.20;;;2.10;;
55003;SDS011;40900;52.710;6.438;2022-09-09T13:28:48;5.03;;;1.55;;
55003;SDS011;40900;52.710;6.438;2022-09-09T13:33:53;4.82;;;1.73;;
55003;SDS011;40900;52.710;6.438;2022-09-09T13:36:27;6.10;;;1.75;;
55003;SDS011;40900;52.710;6.438;2022-09-09T13:38:56;11.65;;;2.00;;
55003;SDS011;40900;52.710;6.438;2022-09-09T13:41:25;8.32;;;2.50;;
55003;SDS011;40900;52.710;6.438;2022-09-09T13:44:14;7.97;;;1.73;;
55003;SDS011;40900;52.710;6.438;2022-09-09T13:46:48;6.07;;;1.83;;
55003;SDS011;40900;52.710;6.438;2022-09-09T13:49:24;4.53;;;1.50;;
55003;SDS011;40900;52.710;6.438;2022-09-09T13:52:02;6.07;;;1.77;;
55003;SDS011;40900;52.710;6.438;2022-09-09T13:54:32;5.82;;;1.35;;
55003;SDS011;40900;52.710;6.438;2022-09-09T13:56:58;3.65;;;1.50;;
55003;SDS011;40900;52.710;6.438;2022-09-09T13:59:24;4.45;;;1.30;;
55003;SDS011;40900;52.710;6.438;2022-09-09T14:01:51;3.08;;;1.10;;
55003;SDS011;40900;52.710;6.438;2022-09-09T14:04:17;3.53;;;1.20;;
55003;SDS011;40900;52.710;6.438;2022-09-09T14:06:46;7.38;;;1.55;;
55003;SDS011;40900;52.710;6.438;2022-09-09T14:09:13;3.33;;;1.27;;
55003;SDS011;40900;52.710;6.438;2022-09-09T14:11:41;7.00;;;1.52;;
55003;SDS011;40900;52.710;6.438;2022-09-09T14:14:07;3.00;;;1.30;;
55003;SDS011;40900;52.710;6.438;2022-09-09T14:16:33;3.97;;;1.50;;
55003;SDS011;40900;52.710;6.438;2022-09-09T14:18:59;5.20;;;1.55;;
55003;SDS011;40900;52.710;6.438;2022-09-09T14:21:26;4.72;;;1.52;;
55003;SDS011;40900;52.710;6.438;2022-09-09T14:23:53;4.82;;;1.40;;
55003;SDS011;40900;52.710;6.438;2022-09-09T14:26:19;4.68;;;1.67;;
55003;SDS011;40900;52.710;6.438;2022-09-09T14:28:46;6.65;;;1.48;;
55003;SDS011;40900;52.710;6.438;2022-09-09T14:31:12;2.53;;;1.17;;
55003;SDS011;40900;52.710;6.438;2022-09-09T14:33:38;4.10;;;1.30;;
55003;SDS011;40900;52.710;6.438;2022-09-09T14:36:05;3.60;;;1.13;;
55003;SDS011;40900;52.710;6.438;2022-09-09T14:38:31;4.53;;;1.50;;
55003;SDS011;40900;52.710;6.438;2022-09-09T14:41:02;4.85;;;1.50;;
55003;SDS011;40900;52.710;6.438;2022-09-09T14:43:28;4.85;;;1.70;;
55003;SDS011;40900;52.710;6.438;2022-09-09T14:45:55;5.40;;;1.55;;
55003;SDS011;40900;52.710;6.438;2022-09-09T14:48:20;4.32;;;1.60;;
55003;SDS011;40900;52.710;6.438;2022-09-09T14:50:46;4.00;;;1.45;;
55003;SDS011;40900;52.710;6.438;2022-09-09T14:53:12;5.72;;;1.58;;
55003;SDS011;40900;52.710;6.438;2022-09-09T14:55:37;3.42;;;1.15;;
55003;SDS011;40900;52.710;6.438;2022-09-09T14:58:04;3.63;;;1.40;;
55003;SDS011;40900;52.710;6.438;2022-09-09T15:00:31;5.70;;;1.40;;
55003;SDS011;40900;52.710;6.438;2022-09-09T15:02:57;4.55;;;1.38;;
55003;SDS011;40900;52.710;6.438;2022-09-09T15:05:22;4.57;;;1.60;;
55003;SDS011;40900;52.710;6.438;2022-09-09T15:07:49;6.65;;;1.67;;
55003;SDS011;40900;52.710;6.438;2022-09-09T15:10:15;3.72;;;1.52;;
55003;SDS011;40900;52.710;6.438;2022-09-09T15:12:42;5.40;;;1.52;;
55003;SDS011;40900;52.710;6.438;2022-09-09T15:15:08;5.43;;;1.58;;
55003;SDS011;40900;52.710;6.438;2022-09-09T15:17:34;3.00;;;1.23;;
55003;SDS011;40900;52.710;6.438;2022-09-09T15:20:02;3.28;;;1.30;;
55003;SDS011;40900;52.710;6.438;2022-09-09T15:22:28;5.15;;;1.50;;
55003;SDS011;40900;52.710;6.438;2022-09-09T15:24:54;4.65;;;1.40;;
55003;SDS011;40900;52.710;6.438;2022-09-09T15:27:19;3.80;;;1.50;;
55003;SDS011;40900;52.710;6.438;2022-09-09T15:29:45;5.50;;;2.08;;
55003;SDS011;40900;52.710;6.438;2022-09-09T15:32:11;5.65;;;1.20;;
55003;SDS011;40900;52.710;6.438;2022-09-09T15:34:37;8.18;;;1.70;;
55003;SDS011;40900;52.710;6.438;2022-09-09T15:37:04;4.30;;;1.80;;
55003;SDS011;40900;52.710;6.438;2022-09-09T15:39:29;4.03;;;1.60;;
55003;SDS011;40900;52.710;6.438;2022-09-09T15:41:55;5.65;;;1.73;;
55003;SDS011;40900;52.710;6.438;2022-09-09T15:44:21;5.90;;;1.63;;
55003;SDS011;40900;52.710;6.438;2022-09-09T15:46:51;3.30;;;1.65;;
55003;SDS011;40900;52.710;6.438;2022-09-09T15:49:24;3.22;;;1.40;;
55003;SDS011;40900;52.710;6.438;2022-09-09T15:51:53;6.43;;;2.00;;
55003;SDS011;40900;52.710;6.438;2022-09-09T15:54:30;3.15;;;1.42;;
55003;SDS011;40900;52.710;6.438;2022-09-09T15:56:58;3.65;;;1.60;;
55003;SDS011;40900;52.710;6.438;2022-09-09T15:59:26;5.60;;;1.70;;
55003;SDS011;40900;52.710;6.438;2022-09-09T16:01:53;5.72;;;1.88;;
55003;SDS011;40900;52.710;6.438;2022-09-09T16:04:20;5.47;;;1.70;;
55003;SDS011;40900;52.710;6.438;2022-09-09T16:06:54;4.15;;;1.83;;
55003;SDS011;40900;52.710;6.438;2022-09-09T16:09:23;6.13;;;2.10;;
55003;SDS011;40900;52.710;6.438;2022-09-09T16:11:50;4.07;;;1.70;;
55003;SDS011;40900;52.710;6.438;2022-09-09T16:14:18;5.10;;;1.90;;
55003;SDS011;40900;52.710;6.438;2022-09-09T16:16:44;6.70;;;1.90;;
55003;SDS011;40900;52.710;6.438;2022-09-09T16:19:10;8.50;;;2.10;;
55003;SDS011;40900;52.710;6.438;2022-09-09T16:21:44;5.20;;;1.98;;
55003;SDS011;40900;52.710;6.438;2022-09-09T16:24:12;5.28;;;1.90;;
55003;SDS011;40900;52.710;6.438;2022-09-09T16:26:41;4.30;;;1.80;;
55003;SDS011;40900;52.710;6.438;2022-09-09T16:29:10;4.93;;;1.70;;
55003;SDS011;40900;52.710;6.438;2022-09-09T16:31:39;5.32;;;2.05;;
55003;SDS011;40900;52.710;6.438;2022-09-09T16:34:06;9.13;;;2.53;;
55003;SDS011;40900;52.710;6.438;2022-09-09T16:36:33;5.93;;;1.73;;
55003;SDS011;40900;52.710;6.438;2022-09-09T16:39:08;6.70;;;2.33;;
55003;SDS011;40900;52.710;6.438;2022-09-09T16:41:38;10.23;;;1.92;;
55003;SDS011;40900;52.710;6.438;2022-09-09T16:44:06;6.45;;;2.00;;
55003;SDS011;40900;52.710;6.438;2022-09-09T16:46:34;6.47;;;2.10;;
55003;SDS011;40900;52.710;6.438;2022-09-09T16:49:02;5.80;;;1.80;;
55003;SDS011;40900;52.710;6.438;2022-09-09T16:51:30;6.53;;;2.13;;
55003;SDS011;40900;52.710;6.438;2022-09-09T16:54:02;4.28;;;1.73;;
55003;SDS011;40900;52.710;6.438;2022-09-09T16:56:30;4.55;;;1.90;;
55003;SDS011;40900;52.710;6.438;2022-09-09T16:58:59;3.90;;;1.90;;
55003;SDS011;40900;52.710;6.438;2022-09-09T17:01:29;4.88;;;1.60;;
55003;SDS011;40900;52.710;6.438;2022-09-09T17:03:58;5.13;;;1.80;;
55003;SDS011;40900;52.710;6.438;2022-09-09T17:06:26;7.95;;;1.98;;
55003;SDS011;40900;52.710;6.438;2022-09-09T17:09:00;4.55;;;1.77;;
55003;SDS011;40900;52.710;6.438;2022-09-09T17:11:28;3.97;;;1.63;;
55003;SDS011;40900;52.710;6.438;2022-09-09T17:13:55;4.93;;;2.00;;
55003;SDS011;40900;52.710;6.438;2022-09-09T17:16:23;3.40;;;1.40;;
55003;SDS011;40900;52.710;6.438;2022-09-09T17:18:52;5.53;;;1.67;;
55003;SDS011;40900;52.710;6.438;2022-09-09T17:21:20;5.60;;;1.90;;
55003;SDS011;40900;52.710;6.438;2022-09-09T17:23:50;7.65;;;1.80;;
55003;SDS011;40900;52.710;6.438;2022-09-09T17:26:18;5.65;;;1.95;;
55003;SDS011;40900;52.710;6.438;2022-09-09T17:28:45;4.60;;;1.85;;
55003;SDS011;40900;52.710;6.438;2022-09-09T17:31:11;4.45;;;1.50;;
55003;SDS011;40900;52.710;6.438;2022-09-09T17:33:39;5.30;;;1.80;;
55003;SDS011;40900;52.710;6.438;2022-09-09T17:36:14;4.47;;;1.75;;
55003;SDS011;40900;52.710;6.438;2022-09-09T17:38:42;6.18;;;1.70;;
55003;SDS011;40900;52.710;6.438;2022-09-09T17:43:39;3.60;;;1.77;;
55003;SDS011;40900;52.710;6.438;2022-09-09T17:46:06;5.13;;;1.80;;